HEAO2: North Fork Red, OK

Data processed at Fri Dec 08 2017 23:12


All information presented herein is the property of the government of the United States of America and may be revised or deleted at any time without prior notice.
Dissemination of this information without the expressed written consent of the Public Affairs Office, Tulsa District U.S. Army Corps of Engineers is strictly prohibited.
These data are gathered electronically and, as presented, have not undergone any form of quality control. These data are not guaranteed to be valid or correct.
Go to home page.
Go to station list.

Upstream stations:

Downstream station:
Previous Day
Next Day
Current Day
    
SHEF ID:       HEAO2     North Fork Red River near Headri
STATION TYPE:  

               PRECIP     STAGE  RIV-FLOW   VOLTAGE
                   in        ft       cfs      volt
              Ccp-Rev   Ccp-Rev   Ccp-Rev   Ccp-Rev
(US/Central)
12/06 00:00      0.00      6.68       113     12.84
12/06 01:00      0.00      6.66       108     12.83
12/06 02:00      0.00      6.66       108     12.81
12/06 03:00      0.00      6.66       108     12.79
12/06 04:00      0.00      6.65       106     12.76
12/06 05:00      0.00      6.65       106     12.72
12/06 06:00      0.00      6.63       102     12.69
12/06 07:00      0.00      6.65       106     12.66
12/06 08:00      0.00      6.61        98     12.75
12/06 09:00      0.00      6.64       104     13.49
12/06 10:00      0.00      6.64       104     14.48
12/06 11:00      0.00      6.63       102     14.72
12/06 12:00      0.00      6.62       100     14.15
12/06 13:00      0.00      6.65       106     14.04
12/06 14:00      0.00      6.64       104     14.04
12/06 15:00      0.00      6.64       104     14.05
12/06 16:00      0.00      6.64       104     14.05
12/06 17:00      0.00      6.63       102     13.43
12/06 18:00      0.00      6.61        98     13.10
12/06 19:00      0.00      6.61        98     12.99
12/06 20:00      0.00      6.63       102     12.95
12/06 21:00      0.00      6.61        98     12.92
12/06 22:00      0.00      6.61        98     12.89
12/06 23:00      0.00      6.61        98     12.87